Sterling, Idaho
Current Conditions -  °F | °C
As of 4:53 PM on Sunday 23 Nov 2014 (Local Time) from KPIH Reporting Station
Broken Clouds Broken Clouds  
Wind Chill: 24°   Ceiling: 4000
Heat Index: 35°   Visibility: 10mi
Dew Point: 27°   Wind: 21mph
Humidity: 72%   Direction: 250°WSW
Pressure: 30.16"   Gusts: 29mph
Location:  43.1849°N, 112.825°W
Report Text: KPIH 232353Z 25018G25KT 10SM BKN040 02/M03 A3016 RMK AO2 SLP233 T00171028 10033 20011 56006
Loading
Personal Weather Stations






























Interactive Weather Map New forecast layout! Learn more

10-Day Weather Forecast

Advertisements
Track Severe Weather on mobile